createdAt,value
2022-09-03T00:00:37.978Z,100367.63
2022-09-03T00:03:27.253Z,100364.44
2022-09-03T00:06:06.981Z,100361.22
2022-09-03T00:08:43.676Z,100357.19
2022-09-03T00:11:32.857Z,100364.44
2022-09-03T00:14:16.308Z,100364.81
2022-09-03T00:17:03.968Z,100368.41
2022-09-03T00:19:33.984Z,100364.44
2022-09-03T00:22:07.937Z,100356.78
2022-09-03T00:24:37.499Z,100356.78
2022-09-03T00:27:11.963Z,100356.78
2022-09-03T00:29:43.549Z,100353.97
2022-09-03T00:32:18.714Z,100363.56
2022-09-03T00:34:51.214Z,100352.34
2022-09-03T00:37:18.469Z,100362.03
2022-09-03T00:39:46.215Z,100352.81
2022-09-03T00:42:34.844Z,100348.78
2022-09-03T00:45:22.543Z,100351.97
2022-09-03T00:48:06.294Z,100350.38
2022-09-03T00:50:51.187Z,100355.97
2022-09-03T00:53:30.663Z,100362.78
2022-09-03T00:56:19.502Z,100368.41
2022-09-03T00:58:59.045Z,100374.03
2022-09-03T01:01:48.463Z,100366.41
2022-09-03T01:04:34.495Z,100366.41
2022-09-03T01:07:13.077Z,100373.25
2022-09-03T01:09:54.443Z,100375.63
2022-09-03T01:12:55.778Z,100375.63
2022-09-03T01:15:41.298Z,100368.03
2022-09-03T01:18:11.372Z,100372.41
2022-09-03T01:20:46.077Z,100366.38
2022-09-03T01:23:37.912Z,100363.19
2022-09-03T01:26:33.993Z,100368.03
2022-09-03T01:29:31.723Z,100367.22
2022-09-03T01:32:07.870Z,100372.81
2022-09-03T01:34:50.209Z,100369.22
2022-09-03T01:37:27.844Z,100367.63
2022-09-03T01:40:13.637Z,100365.22
2022-09-03T01:43:03.026Z,100366.81
2022-09-03T01:45:50.188Z,100366.81
2022-09-03T01:48:41.078Z,100370.81
2022-09-03T01:51:21.045Z,100368.78
2022-09-03T01:54:27.385Z,100363.16
2022-09-03T01:57:34.579Z,100366.31
2022-09-03T02:00:13.742Z,100372.00
2022-09-03T02:02:43.441Z,100367.97
2022-09-03T02:05:14.882Z,100363.56
2022-09-03T02:07:44.817Z,100368.34
2022-09-03T02:10:15.243Z,100363.97
2022-09-03T02:12:50.006Z,100360.34
2022-09-03T02:15:19.360Z,100369.56
2022-09-03T02:17:48.869Z,100363.50
2022-09-03T02:20:23.023Z,100365.53
2022-09-03T02:22:50.853Z,100360.66
2022-09-03T02:25:18.188Z,100371.09
2022-09-03T02:27:45.811Z,100364.28
2022-09-03T02:30:13.102Z,100364.22
2022-09-03T02:32:40.386Z,100369.03
2022-09-03T02:35:08.198Z,100374.56
2022-09-03T02:37:35.552Z,100371.78
2022-09-03T02:40:06.851Z,100369.38
2022-09-03T02:42:34.844Z,100370.19
2022-09-03T02:45:14.406Z,100370.97
2022-09-03T02:47:44.617Z,100374.22
2022-09-03T02:50:11.929Z,100375.41
2022-09-03T02:52:39.163Z,100380.97
2022-09-03T02:55:08.107Z,100371.81
2022-09-03T02:57:35.395Z,100366.63
2022-09-03T03:00:03.072Z,100371.88
2022-09-03T03:02:30.484Z,100367.50
2022-09-03T03:04:57.746Z,100367.88
2022-09-03T03:07:25.972Z,100370.66
2022-09-03T03:09:53.229Z,100377.47
2022-09-03T03:12:21.471Z,100375.84
2022-09-03T03:14:48.835Z,100379.84
2022-09-03T03:17:16.081Z,100369.84
2022-09-03T03:19:43.447Z,100374.63
2022-09-03T03:22:10.715Z,100372.22
2022-09-03T03:24:38.169Z,100368.66
2022-09-03T03:27:07.227Z,100373.84
2022-09-03T03:29:35.125Z,100370.16
2022-09-03T03:32:02.777Z,100372.94
2022-09-03T03:34:30.001Z,100375.78
2022-09-03T03:36:57.262Z,100376.13
2022-09-03T03:39:24.539Z,100378.16
2022-09-03T03:41:52.560Z,100379.78
2022-09-03T03:44:20.436Z,100365.81
2022-09-03T03:46:47.817Z,100372.22
2022-09-03T03:49:14.995Z,100371.81
2022-09-03T03:51:42.295Z,100366.19
2022-09-03T03:54:09.667Z,100363.78
2022-09-03T03:56:37.086Z,100357.38
2022-09-03T03:59:04.723Z,100366.53
2022-09-03T04:01:32.580Z,100365.81
2022-09-03T04:04:00.376Z,100359.00
2022-09-03T04:06:28.782Z,100360.16
2022-09-03T04:08:56.078Z,100356.19
2022-09-03T04:11:24.241Z,100360.22
2022-09-03T04:13:51.904Z,100359.41
2022-09-03T04:16:22.016Z,100362.66
2022-09-03T04:18:49.585Z,100355.44
2022-09-03T04:21:19.708Z,100369.03
2022-09-03T04:23:47.956Z,100362.63
2022-09-03T04:26:18.032Z,100363.34
2022-09-03T04:28:45.592Z,100357.00
2022-09-03T04:31:15.437Z,100360.84
2022-09-03T04:33:43.291Z,100362.53
2022-09-03T04:36:12.857Z,100359.38
2022-09-03T04:38:41.924Z,100362.59
2022-09-03T04:41:11.358Z,100363.75
2022-09-03T04:43:39.022Z,100358.22
2022-09-03T04:46:10.857Z,100365.84
2022-09-03T04:48:44.096Z,100364.09
2022-09-03T04:51:13.767Z,100377.69
2022-09-03T04:53:43.653Z,100369.75
2022-09-03T04:56:22.285Z,100368.91
2022-09-03T04:58:55.048Z,100374.19
2022-09-03T05:01:23.929Z,100372.53
2022-09-03T05:03:52.355Z,100368.91
2022-09-03T05:06:20.530Z,100373.41
2022-09-03T05:08:48.904Z,100377.81
2022-09-03T05:11:17.862Z,100372.59
2022-09-03T05:13:51.363Z,100380.03
2022-09-03T05:16:19.467Z,100376.09
2022-09-03T05:18:48.176Z,100373.66
2022-09-03T05:21:17.973Z,100368.84
2022-09-03T05:23:46.945Z,100377.34
2022-09-03T05:26:19.695Z,100372.03
2022-09-03T05:28:47.803Z,100378.34
2022-09-03T05:31:17.752Z,100372.41
2022-09-03T05:33:47.085Z,100383.22
2022-09-03T05:36:19.487Z,100389.72
2022-09-03T05:38:50.155Z,100389.97
2022-09-03T05:41:19.036Z,100387.22
2022-09-03T05:43:58.923Z,100400.50
2022-09-03T05:46:32.665Z,100396.94
2022-09-03T05:49:05.410Z,100388.88
2022-09-03T05:51:33.928Z,100395.56
2022-09-03T05:54:02.023Z,100399.69
2022-09-03T05:56:30.901Z,100399.28
2022-09-03T05:59:03.442Z,100404.56
2022-09-03T06:01:33.134Z,100419.34
2022-09-03T06:04:05.408Z,100408.47
2022-09-03T06:06:35.705Z,100420.13
2022-09-03T06:09:05.770Z,100424.97
2022-09-03T06:11:35.475Z,100422.19
2022-09-03T06:14:05.800Z,100427.50
2022-09-03T06:16:35.594Z,100436.66
2022-09-03T06:19:03.757Z,100435.88
2022-09-03T06:21:30.975Z,100428.25
2022-09-03T06:23:59.719Z,100438.66
2022-09-03T06:26:28.703Z,100432.63
2022-09-03T06:28:57.429Z,100433.06
2022-09-03T06:31:25.716Z,100431.09
2022-09-03T06:33:55.060Z,100434.69
2022-09-03T06:36:24.309Z,100435.16
2022-09-03T06:38:53.367Z,100437.97
2022-09-03T06:41:26.114Z,100441.50
2022-09-03T06:44:04.282Z,100439.50
2022-09-03T06:46:33.359Z,100442.28
2022-09-03T06:49:00.888Z,100440.72
2022-09-03T06:51:30.110Z,100439.47
2022-09-03T06:54:04.391Z,100445.06
2022-09-03T06:56:37.395Z,100453.91
2022-09-03T06:59:11.985Z,100447.94
2022-09-03T07:01:43.587Z,100440.00
2022-09-03T07:04:13.195Z,100441.53
2022-09-03T07:06:42.503Z,100441.97
2022-09-03T07:09:11.586Z,100448.78
2022-09-03T07:11:46.717Z,100445.47
2022-09-03T07:14:14.948Z,100442.97
2022-09-03T07:16:43.454Z,100446.66
2022-09-03T07:19:10.936Z,100450.72
2022-09-03T07:21:38.246Z,100448.34
2022-09-03T07:24:06.223Z,100440.72
2022-09-03T07:26:39.131Z,100447.88
2022-09-03T07:29:07.917Z,100452.34
2022-09-03T07:31:38.381Z,100456.38
2022-09-03T07:34:09.904Z,100452.88
2022-09-03T07:36:42.725Z,100451.63
2022-09-03T07:39:14.126Z,100458.81
2022-09-03T07:41:46.118Z,100458.47
2022-09-03T07:44:15.436Z,100457.34
2022-09-03T07:46:43.679Z,100461.72
2022-09-03T07:49:13.305Z,100456.50
2022-09-03T07:51:40.747Z,100462.19
2022-09-03T07:54:11.263Z,100458.19
2022-09-03T07:56:40.372Z,100468.25
2022-09-03T07:59:08.344Z,100453.44
2022-09-03T08:01:36.456Z,100459.88
2022-09-03T08:04:04.819Z,100470.28
2022-09-03T08:06:38.001Z,100467.88
2022-09-03T08:09:07.307Z,100465.13
2022-09-03T08:11:37.884Z,100466.31
2022-09-03T08:14:07.812Z,100470.34
2022-09-03T08:16:37.819Z,100475.94
2022-09-03T08:19:05.494Z,100463.88
2022-09-03T08:21:33.016Z,100477.91
2022-09-03T08:24:02.966Z,100478.31
2022-09-03T08:26:31.892Z,100491.16
2022-09-03T08:28:59.775Z,100480.72
2022-09-03T08:31:29.256Z,100475.88
2022-09-03T08:33:58.692Z,100483.91
2022-09-03T08:36:30.067Z,100492.75
2022-09-03T08:38:59.482Z,100493.16
2022-09-03T08:41:42.530Z,100489.88
2022-09-03T08:44:28.698Z,100488.63
2022-09-03T08:47:41.660Z,100497.84
2022-09-03T08:50:15.744Z,100496.63
2022-09-03T08:52:49.222Z,100501.50
2022-09-03T08:55:22.244Z,100508.31
2022-09-03T08:58:10.839Z,100512.75
2022-09-03T09:00:54.054Z,100508.28
2022-09-03T09:03:39.639Z,100512.66
2022-09-03T09:06:34.731Z,100506.91
2022-09-03T09:09:10.936Z,100510.19
2022-09-03T09:12:05.829Z,100506.56
2022-09-03T09:14:34.110Z,100508.88
2022-09-03T09:17:32.510Z,100509.72
2022-09-03T09:20:12.046Z,100506.91
2022-09-03T09:22:47.245Z,100523.38
2022-09-03T09:25:23.432Z,100519.31
2022-09-03T09:28:25.086Z,100504.00
2022-09-03T09:30:55.792Z,100507.72
2022-09-03T09:33:24.321Z,100513.34
2022-09-03T09:35:51.534Z,100512.53
2022-09-03T09:38:31.517Z,100520.56
2022-09-03T09:41:13.034Z,100525.81
2022-09-03T09:43:40.821Z,100526.69
2022-09-03T09:46:20.228Z,100527.53
2022-09-03T09:48:53.211Z,100527.53
2022-09-03T09:51:26.274Z,100527.53
2022-09-03T09:54:08.827Z,100526.31
2022-09-03T09:56:36.600Z,100528.72
2022-09-03T09:59:05.498Z,100526.75
2022-09-03T10:01:33.148Z,100530.38
2022-09-03T10:04:11.821Z,100528.72
2022-09-03T10:06:54.471Z,100534.34
2022-09-03T10:09:30.825Z,100533.56
2022-09-03T10:12:23.376Z,100536.72
2022-09-03T10:15:00.014Z,100543.94
2022-09-03T10:17:37.331Z,100547.97
2022-09-03T10:20:30.098Z,100544.81
2022-09-03T10:23:11.990Z,100548.00
2022-09-03T10:26:07.377Z,100542.72
2022-09-03T10:28:43.052Z,100551.94
2022-09-03T10:31:30.149Z,100553.06
2022-09-03T10:34:06.735Z,100549.06
2022-09-03T10:36:38.112Z,100558.81
2022-09-03T10:39:11.872Z,100558.41
2022-09-03T10:41:54.739Z,100561.59
2022-09-03T10:45:01.726Z,100556.00
2022-09-03T10:47:38.267Z,100552.28
2022-09-03T10:50:17.945Z,100560.78
2022-09-03T10:53:12.872Z,100557.56
2022-09-03T10:56:00.666Z,100559.59
2022-09-03T10:58:33.930Z,100551.53
2022-09-03T11:01:10.833Z,100543.06
2022-09-03T11:03:48.701Z,100553.03
2022-09-03T11:06:21.065Z,100549.44
2022-09-03T11:09:08.412Z,100546.25
2022-09-03T11:11:41.916Z,100547.41
2022-09-03T11:14:11.240Z,100542.06
2022-09-03T11:16:42.984Z,100532.78
2022-09-03T11:19:15.656Z,100532.41
2022-09-03T11:21:44.173Z,100541.66
2022-09-03T11:24:23.463Z,100551.19
2022-09-03T11:26:55.285Z,100543.88
2022-09-03T11:29:36.801Z,100545.06
2022-09-03T11:32:21.851Z,100545.56
2022-09-03T11:34:51.602Z,100541.22
2022-09-03T11:37:18.994Z,100544.13
2022-09-03T11:40:08.776Z,100538.69
2022-09-03T11:42:41.815Z,100540.59
2022-09-03T11:45:22.668Z,100540.09
2022-09-03T11:47:51.390Z,100538.81
2022-09-03T11:50:27.675Z,100536.94
2022-09-03T11:53:09.556Z,100542.19
2022-09-03T11:56:04.793Z,100535.47
2022-09-03T11:58:36.998Z,100548.75
2022-09-03T12:01:16.473Z,100537.81
2022-09-03T12:03:46.991Z,100551.75
2022-09-03T12:06:33.054Z,100546.94
2022-09-03T12:09:18.441Z,100535.69
2022-09-03T12:12:00.549Z,100544.72
2022-09-03T12:14:48.040Z,100536.47
2022-09-03T12:17:18.436Z,100545.78
2022-09-03T12:19:52.089Z,100546.38
2022-09-03T12:22:21.757Z,100538.28
2022-09-03T12:24:50.766Z,100550.66
2022-09-03T12:27:27.121Z,100548.34
2022-09-03T12:30:03.439Z,100550.78
2022-09-03T12:32:37.036Z,100557.72
2022-09-03T12:38:08.446Z,100558.19
2022-09-03T12:41:23.501Z,100559.56
2022-09-03T12:43:38.780Z,100558.47
2022-09-03T12:46:14.575Z,100556.81
2022-09-03T12:52:05.819Z,100558.22
2022-09-03T12:54:36.259Z,100555.28
2022-09-03T12:57:03.778Z,100553.25
2022-09-03T12:59:33.376Z,100562.38
2022-09-03T13:02:05.850Z,100562.47
2022-09-03T13:04:35.767Z,100558.78
2022-09-03T13:07:07.157Z,100559.13
2022-09-03T13:09:36.694Z,100559.88
2022-09-03T13:12:07.380Z,100567.00
2022-09-03T13:14:45.258Z,100567.44
2022-09-03T13:17:44.871Z,100557.53
2022-09-03T13:20:20.486Z,100553.25
2022-09-03T13:23:08.076Z,100558.53
2022-09-03T13:25:48.999Z,100557.03
2022-09-03T13:28:28.721Z,100554.19
2022-09-03T13:31:05.268Z,100562.91
2022-09-03T13:33:38.424Z,100564.25
2022-09-03T13:36:17.763Z,100563.13
2022-09-03T13:39:06.160Z,100564.22
2022-09-03T13:41:54.173Z,100564.44
2022-09-03T13:44:23.990Z,100568.69
2022-09-03T13:47:07.908Z,100566.16
2022-09-03T13:50:01.640Z,100564.66
2022-09-03T13:52:43.022Z,100570.09
2022-09-03T13:55:19.974Z,100577.94
2022-09-03T13:57:58.360Z,100577.63
2022-09-03T14:00:44.466Z,100578.59
2022-09-03T14:03:17.897Z,100578.59
2022-09-03T14:06:00.342Z,100577.84
2022-09-03T14:08:54.394Z,100584.31
2022-09-03T14:11:54.252Z,100581.78
2022-09-03T14:15:01.392Z,100582.50
2022-09-03T14:17:43.017Z,100575.31
2022-09-03T14:20:16.745Z,100581.44
2022-09-03T14:22:44.018Z,100583.91
2022-09-03T14:25:16.022Z,100575.38
2022-09-03T14:27:43.583Z,100578.25
2022-09-03T14:30:16.853Z,100576.56
2022-09-03T14:33:03.292Z,100572.50
2022-09-03T14:35:44.870Z,100569.22
2022-09-03T14:38:41.322Z,100568.84
2022-09-03T14:41:16.869Z,100560.38
2022-09-03T14:44:09.759Z,100563.78
2022-09-03T14:46:39.652Z,100572.66
2022-09-03T14:49:17.814Z,100567.66
2022-09-03T14:51:49.730Z,100562.09
2022-09-03T14:54:42.987Z,100562.19
2022-09-03T14:57:25.075Z,100559.88
2022-09-03T15:00:07.569Z,100556.06
2022-09-03T15:03:08.797Z,100561.91
2022-09-03T15:05:48.679Z,100553.44
2022-09-03T15:08:16.112Z,100554.13
2022-09-03T15:10:55.865Z,100553.47
2022-09-03T15:13:36.270Z,100552.91
2022-09-03T15:16:18.560Z,100546.63
2022-09-03T15:18:58.673Z,100556.91
2022-09-03T15:21:29.369Z,100561.72
2022-09-03T15:24:03.835Z,100560.38
2022-09-03T15:26:56.321Z,100563.47
2022-09-03T15:29:46.002Z,100560.97
2022-09-03T15:32:19.448Z,100559.88
2022-09-03T15:35:05.293Z,100560.75
2022-09-03T15:37:38.587Z,100560.19
2022-09-03T15:40:11.003Z,100570.91
2022-09-03T15:42:39.021Z,100565.06
2022-09-03T15:45:16.966Z,100566.78
2022-09-03T15:47:54.314Z,100570.38
2022-09-03T15:50:48.203Z,100568.56
2022-09-03T15:53:36.180Z,100560.72
2022-09-03T15:56:15.417Z,100560.25
2022-09-03T15:58:48.304Z,100552.66
2022-09-03T16:01:35.631Z,100556.47
2022-09-03T16:04:09.809Z,100554.13
2022-09-03T16:06:43.401Z,100565.72
2022-09-03T16:09:25.741Z,100555.53
2022-09-03T16:12:10.034Z,100558.63
2022-09-03T16:14:47.233Z,100558.44
2022-09-03T16:17:33.065Z,100560.00
2022-09-03T16:20:07.848Z,100558.13
2022-09-03T16:23:04.828Z,100562.06
2022-09-03T16:25:35.818Z,100564.03
2022-09-03T16:28:14.831Z,100568.50
2022-09-03T16:31:15.325Z,100564.22
2022-09-03T16:33:46.197Z,100559.34
2022-09-03T16:36:35.352Z,100561.00
2022-09-03T16:39:27.153Z,100566.09
2022-09-03T16:42:22.123Z,100578.56
2022-09-03T16:45:07.300Z,100571.31
2022-09-03T16:47:54.124Z,100568.41
2022-09-03T16:50:35.262Z,100569.41
2022-09-03T16:53:34.943Z,100569.59
2022-09-03T16:56:27.372Z,100567.63
2022-09-03T16:59:05.892Z,100570.69
2022-09-03T17:01:36.308Z,100570.22
2022-09-03T17:04:30.182Z,100568.09
2022-09-03T17:07:18.786Z,100569.75
2022-09-03T17:10:19.722Z,100561.75
2022-09-03T17:13:06.698Z,100576.28
2022-09-03T17:15:44.758Z,100569.38
2022-09-03T17:18:24.449Z,100573.88
2022-09-03T17:21:13.128Z,100581.53
2022-09-03T17:24:08.181Z,100577.97
2022-09-03T17:27:03.931Z,100585.56
2022-09-03T17:29:38.466Z,100592.44
2022-09-03T17:32:21.206Z,100590.47
2022-09-03T17:35:32.913Z,100584.16
2022-09-03T17:38:15.129Z,100585.69
2022-09-03T17:40:55.375Z,100587.22
2022-09-03T17:43:41.175Z,100591.66
2022-09-03T17:46:11.972Z,100593.38
2022-09-03T17:48:54.937Z,100596.94
2022-09-03T17:51:22.183Z,100599.34
2022-09-03T17:53:53.553Z,100602.25
2022-09-03T17:56:23.695Z,100601.03
2022-09-03T17:59:09.406Z,100602.34
2022-09-03T18:01:39.485Z,100601.53
2022-09-03T18:04:29.918Z,100607.94
2022-09-03T18:07:08.552Z,100612.72
2022-09-03T18:09:41.197Z,100613.50
2022-09-03T18:12:28.134Z,100622.03
2022-09-03T18:15:08.145Z,100617.22
2022-09-03T18:17:59.911Z,100620.41
2022-09-03T18:20:58.822Z,100615.19
2022-09-03T18:24:02.626Z,100625.69
2022-09-03T18:26:52.457Z,100623.34
2022-09-03T18:29:54.492Z,100628.56
2022-09-03T18:32:40.416Z,100637.44
2022-09-03T18:35:27.420Z,100640.25
2022-09-03T18:38:13.434Z,100636.59
2022-09-03T18:41:12.661Z,100642.25
2022-09-03T18:44:05.556Z,100650.00
2022-09-03T18:48:02.130Z,100651.91
2022-09-03T18:50:14.896Z,100649.97
2022-09-03T18:53:13.460Z,100656.84
2022-09-03T18:56:09.033Z,100658.06
2022-09-03T18:59:14.572Z,100664.53
2022-09-03T19:02:01.743Z,100658.06
2022-09-03T19:05:17.939Z,100676.63
2022-09-03T19:08:20.609Z,100662.13
2022-09-03T19:11:14.346Z,100673.34
2022-09-03T19:14:01.456Z,100669.34
2022-09-03T19:17:19.775Z,100677.41
2022-09-03T19:20:43.172Z,100681.44
2022-09-03T19:23:29.170Z,100687.06
2022-09-03T19:26:30.441Z,100689.91
2022-09-03T19:29:20.995Z,100687.50
2022-09-03T19:32:17.063Z,100692.75
2022-09-03T19:35:03.041Z,100688.34
2022-09-03T19:38:10.533Z,100693.56
2022-09-03T19:41:04.531Z,100692.31
2022-09-03T19:44:00.954Z,100698.78
2022-09-03T19:46:54.232Z,100699.59
2022-09-03T19:49:59.126Z,100695.13
2022-09-03T19:53:11.189Z,100702.78
2022-09-03T19:56:07.780Z,100698.78
2022-09-03T19:58:55.701Z,100695.56
2022-09-03T20:01:44.044Z,100702.41
2022-09-03T20:04:32.639Z,100701.59
2022-09-03T20:07:22.684Z,100698.38
2022-09-03T20:10:08.593Z,100700.78
2022-09-03T20:12:39.659Z,100692.34
2022-09-03T20:15:08.150Z,100702.81
2022-09-03T20:17:44.095Z,100707.63
2022-09-03T20:20:30.861Z,100707.63
2022-09-03T20:23:09.505Z,100708.44
2022-09-03T20:25:45.179Z,100706.41
2022-09-03T20:28:24.025Z,100708.44
2022-09-03T20:31:17.505Z,100707.22
2022-09-03T20:33:59.640Z,100709.22
2022-09-03T20:36:42.725Z,100707.22
2022-09-03T20:39:49.248Z,100703.59
2022-09-03T20:42:28.680Z,100713.66
2022-09-03T20:45:19.245Z,100708.03
2022-09-03T20:48:05.627Z,100718.06
2022-09-03T20:50:45.067Z,100717.28
2022-09-03T20:53:15.181Z,100717.25
2022-09-03T20:55:44.045Z,100722.50
2022-09-03T20:58:38.641Z,100722.91
2022-09-03T21:01:09.021Z,100729.72
2022-09-03T21:03:48.064Z,100724.91
2022-09-03T21:06:53.447Z,100726.09
2022-09-03T21:09:39.144Z,100730.53
2022-09-03T21:12:35.871Z,100744.56
2022-09-03T21:15:14.710Z,100743.34
2022-09-03T21:18:08.696Z,100746.53
2022-09-03T21:20:55.164Z,100742.09
2022-09-03T21:23:35.728Z,100740.84
2022-09-03T21:26:21.492Z,100740.44
2022-09-03T21:29:07.681Z,100750.13
2022-09-03T21:31:42.131Z,100742.44
2022-09-03T21:34:33.452Z,100746.47
2022-09-03T21:37:01.246Z,100747.72
2022-09-03T21:39:32.871Z,100746.50
2022-09-03T21:42:18.999Z,100742.91
2022-09-03T21:45:09.836Z,100752.91
2022-09-03T21:47:53.483Z,100748.09
2022-09-03T21:50:23.116Z,100750.06
2022-09-03T21:52:55.683Z,100760.47
2022-09-03T21:55:27.515Z,100765.69
2022-09-03T21:58:14.065Z,100774.44
2022-09-03T22:00:41.444Z,100772.94
2022-09-03T22:03:10.457Z,100777.34
2022-09-03T22:06:26.018Z,100782.94
2022-09-03T22:09:03.469Z,100776.09
2022-09-03T22:12:02.502Z,100775.72
2022-09-03T22:14:48.097Z,100776.94
2022-09-03T22:17:35.275Z,100774.50
2022-09-03T22:20:05.134Z,100777.28
2022-09-03T22:22:57.678Z,100783.66
2022-09-03T22:29:28.069Z,100772.03
2022-09-03T22:32:04.673Z,100772.00
2022-09-03T22:34:41.444Z,100772.00
2022-09-03T22:38:02.077Z,100774.44
2022-09-03T22:40:52.518Z,100770.47
2022-09-03T22:44:00.103Z,100777.69
2022-09-03T22:50:41.506Z,100785.25
2022-09-03T22:53:32.109Z,100783.63
2022-09-03T22:56:11.589Z,100782.84
2022-09-03T22:58:46.013Z,100784.50
2022-09-03T23:01:18.593Z,100785.31
2022-09-03T23:03:55.458Z,100786.09
2022-09-03T23:06:26.947Z,100782.91
2022-09-03T23:09:00.320Z,100783.72
2022-09-03T23:11:32.535Z,100790.88
2022-09-03T23:14:06.975Z,100796.44
2022-09-03T23:16:44.980Z,100793.66
2022-09-03T23:19:33.380Z,100788.81
2022-09-03T23:22:05.680Z,100789.97
2022-09-03T23:25:01.828Z,100789.41
2022-09-03T23:27:38.904Z,100788.16
2022-09-03T23:30:06.863Z,100787.81
2022-09-03T23:32:34.680Z,100789.03
2022-09-03T23:35:22.145Z,100784.69
2022-09-03T23:37:59.975Z,100780.19
2022-09-03T23:40:27.136Z,100787.41
2022-09-03T23:43:15.598Z,100786.16
2022-09-03T23:46:15.330Z,100790.53
2022-09-03T23:49:05.216Z,100786.13
2022-09-03T23:51:57.274Z,100787.31
2022-09-03T23:54:47.670Z,100785.75
2022-09-03T23:57:33.725Z,100798.94
